Clipper Saga — LAFY6 — position and weather

sailwx.info

Track history (hours):
 
Tides and Currents Weather Stations Pressure Air Temp Water Temp Dewpoint Dewpoint Depression Visibility Wind Speed Wind Dir Waves Ship Positions

Clipper Saga

Last reported at 2017-Feb-19 04:33 UTC. Time now 2017-Feb-19 21:14 UTC.
Position N 51°41' E 004°34'.

Length 89 m; draft 5.9 m.

Type: Ship (hazmat cat C). MMSI: 246657008.

Date/timePositionNaut miles runAvg speedWind from/ knotsBaromVisibWave heightAir tempDewpointWater temp
2017-Feb-19 04:33N 51°41' E 004°34'3 3.5
2017-Feb-19 03:34N 51°44' E 004°38'7 7.2
2017-Feb-19 02:34N 51°50' E 004°31'8 7.7
2017-Feb-19 01:33N 51°54' E 004°20'1 0.6
2017-Feb-19 00:30N 51°53' E 004°21'0 0.0
2017-Feb-18 23:30N 51°53' E 004°21'0 0.0
2017-Feb-18 22:24N 51°53' E 004°21'0 0.0
2017-Feb-18 21:30N 51°53' E 004°21'0 0.0
2017-Feb-18 20:30N 51°53' E 004°21'0 0.0
2017-Feb-18 19:31N 51°53' E 004°21'0 0.0
2017-Feb-18 18:31N 51°53' E 004°21'0 0.0
2017-Feb-18 17:31N 51°53' E 004°21'0 0.0
2017-Feb-18 16:31N 51°53' E 004°21'0 0.0
2017-Feb-18 15:31N 51°53' E 004°21'6 5.9
2017-Feb-18 14:33N 51°56' E 004°13'10 9.6
2017-Feb-18 13:33N 51°60' E 003°58'9 9.3
2017-Feb-18 12:33N 51°59' E 003°43'53 8.8
2017-Feb-18 06:33N 51°37' E 002°26'9 9.4
2017-Feb-18 05:33N 51°30' E 002°16'9 9.1
2017-Feb-18 04:33N 51°22' E 002°08'10 9.5
2017-Feb-18 03:33N 51°14' E 002°02'9 9.4
2017-Feb-18 02:33N 51°09' E 001°49'9 9.3
2017-Feb-18 01:33N 51°02' E 001°39'10 9.8
2017-Feb-18 00:33N 50°54' E 001°29'48 8.8
2017-Feb-17 19:06N 50°24' E 000°31'6 9.2
2017-Feb-17 18:29N 50°22' E 000°22'10 9.1
2017-Feb-17 17:26N 50°19' E 000°08'8 9.4
2017-Feb-17 16:33N 50°16' W 000°04'10 9.6
2017-Feb-17 15:33N 50°13' W 000°19'9 8.8
2017-Feb-17 14:33N 50°10' W 000°32'10 6.4
2017-Feb-17 13:04N 50°03' W 000°41'5 9.1
2017-Feb-17 12:33N 49°59' W 000°39'9 9.0
2017-Feb-17 11:33N 49°50' W 000°35'9 9.0
2017-Feb-17 10:33N 49°42' W 000°30'1010.0
2017-Feb-17 09:33N 49°35' W 000°19'1212.2
2017-Feb-17 08:33N 49°29' W 000°03'1212.2
2017-Feb-17 07:33N 49°26' E 000°16'1211.6
2017-Feb-17 06:33N 49°27' E 000°33'9 7.0
2017-Feb-17 05:12N 49°29' E 000°48'5 0.3
2017-Feb-16 11:33N 49°29' E 000°40'9 9.0
2017-Feb-16 10:33N 49°28' E 000°26'1212.3
2017-Feb-16 09:33N 49°26' E 000°08'9 8.7
2017-Feb-16 08:31N 49°28' W 000°06'0 0.0
2017-Feb-16 07:31N 49°28' W 000°06'0 0.0
2017-Feb-16 06:31N 49°28' W 000°06'2 1.9
2017-Feb-16 05:33N 49°30' W 000°08'1010.2
2017-Feb-16 04:34N 49°40' W 000°10'1111.2
2017-Feb-16 03:33N 49°51' W 000°10'1111.2
2017-Feb-16 02:33N 50°02' W 000°09'1211.0
2017-Feb-16 01:29N 50°14' W 000°09'910.1
2017-Feb-16 00:34N 50°23' W 000°06'8 8.0
2017-Feb-15 23:34N 50°29' E 000°02'10 9.4
2017-Feb-15 22:30N 50°31' E 000°17'4511.4
2017-Feb-15 18:34N 50°54' E 001°18'1110.5
2017-Feb-15 17:34N 51°02' E 001°28'9 8.7
2017-Feb-15 16:34N 51°09' E 001°38'8 8.3
2017-Feb-15 15:34N 51°14' E 001°47'9 8.7
2017-Feb-15 14:34N 51°22' E 001°55'1010.2
2017-Feb-15 13:34N 51°30' E 002°04'6211.4
2017-Feb-15 08:06N 52°04' E 003°29'611.3
2017-Feb-15 07:33N 52°04' E 003°39'1110.6
2017-Feb-15 06:34N 52°02' E 003°56'1110.6
2017-Feb-15 05:34N 51°57' E 004°11'6 5.3
2017-Feb-15 04:24N 51°53' E 004°18'0 0.0
2017-Feb-15 03:30N 51°53' E 004°18'0 0.0
2017-Feb-15 02:24N 51°53' E 004°18'0 0.0
2017-Feb-15 01:30N 51°53' E 004°18'0 0.0
2017-Feb-15 00:30N 51°53' E 004°18'0 0.0
2017-Feb-14 23:30N 51°53' E 004°18'0 0.0
2017-Feb-14 22:30N 51°53' E 004°18'0 0.0
2017-Feb-14 21:30N 51°53' E 004°18'0 0.0
2017-Feb-14 20:33N 51°53' E 004°18'0 0.0
2017-Feb-14 19:30N 51°53' E 004°18'0 0.0
2017-Feb-14 18:33N 51°53' E 004°18'0 0.0
2017-Feb-14 17:30N 51°53' E 004°18'0 0.0
2017-Feb-14 16:30N 51°53' E 004°18'0 0.0
2017-Feb-14 15:30N 51°53' E 004°18'0 0.0
2017-Feb-14 14:30N 51°53' E 004°18'0 0.2
2017-Feb-14 13:34N 51°53' E 004°18'8 8.3
2017-Feb-14 12:33N 51°58' E 004°08'1010.1
2017-Feb-14 11:33N 51°60' E 003°52'1110.0
2017-Feb-14 10:29N 52°05' E 003°37'31 1.7
2017-Feb-13 16:32N 52°19' E 002°52'4 4.5
2017-Feb-13 15:33N 52°17' E 002°45'8 7.8
2017-Feb-13 14:32N 52°16' E 002°32'8 7.7
2017-Feb-13 13:33N 52°14' E 002°20'6 5.8
2017-Feb-13 12:33N 52°13' E 002°11'8 8.0
2017-Feb-13 11:31N 52°14' E 002°24'8 8.0
2017-Feb-13 10:33N 52°15' E 002°37'16 8.1
2017-Feb-13 08:33N 52°05' E 002°58'9 9.3
2017-Feb-13 07:33N 52°04' E 003°13'1211.5
2017-Feb-13 06:33N 52°04' E 003°32'1211.9
2017-Feb-13 05:34N 52°03' E 003°51'1010.4
2017-Feb-13 04:34N 51°59' E 004°06'9 9.2
2017-Feb-13 03:33N 51°53' E 004°18'1 0.7
2017-Feb-13 02:31N 51°53' E 004°17'0 0.0
2017-Feb-13 01:34N 51°53' E 004°17'0 0.0
2017-Feb-13 00:31N 51°53' E 004°17'0 0.0
2017-Feb-12 23:25N 51°53' E 004°17'0 0.0
2017-Feb-12 22:31N 51°53' E 004°17'0 0.0
2017-Feb-12 21:28N 51°53' E 004°17'0 0.0
2017-Feb-12 20:33N 51°53' E 004°17'0 0.0
2017-Feb-12 19:31N 51°53' E 004°17'0 0.0
2017-Feb-12 18:33N 51°53' E 004°17'0 0.0
2017-Feb-12 17:33N 51°53' E 004°17'0 0.0
2017-Feb-12 16:33N 51°53' E 004°17'0 0.0
2017-Feb-12 15:30N 51°53' E 004°17'0 0.0
2017-Feb-12 14:33N 51°53' E 004°17'0 0.0
2017-Feb-12 13:33N 51°53' E 004°17'0 0.0
2017-Feb-12 12:33N 51°53' E 004°17'0 0.0
2017-Feb-12 11:30N 51°53' E 004°17'0 0.0
2017-Feb-12 10:30N 51°53' E 004°17'0 0.0
2017-Feb-12 09:32N 51°53' E 004°17'0 0.0
2017-Feb-12 08:32N 51°53' E 004°17'0 0.0
2017-Feb-12 07:32N 51°53' E 004°17'0 0.0
2017-Feb-12 06:33N 51°53' E 004°17'3 3.0
2017-Feb-12 05:33N 51°55' E 004°14'1010.1
2017-Feb-12 04:33N 51°60' E 003°59'1010.3
2017-Feb-12 03:33N 52°02' E 003°43'80 9.9
2017-Feb-11 19:32N 52°47' E 001°54'1212.3
2017-Feb-11 18:33N 52°54' E 001°38'1312.5
2017-Feb-11 17:34N 53°04' E 001°26'6610.9
2017-Feb-11 11:31N 53°60' E 000°28'9 9.6
2017-Feb-11 10:33N 54°07' E 000°19'10 9.6
2017-Feb-11 09:33N 54°16' E 000°11'9 9.5
2017-Feb-11 08:33N 54°24' E 000°02'1010.0
2017-Feb-11 07:33N 54°32' W 000°07'1110.5
2017-Feb-11 06:33N 54°41' W 000°16'5011.6
2017-Feb-11 02:15N 55°23' W 001°02'812.0
2017-Feb-11 01:33N 55°30' W 001°11'1211.7
2017-Feb-11 00:33N 55°39' W 001°25'1111.1
2017-Feb-10 23:32N 55°46' W 001°41'1010.6
2017-Feb-10 22:33N 55°52' W 001°55'1010.1
2017-Feb-10 21:33N 55°58' W 002°10'1010.5
2017-Feb-10 20:33N 56°03' W 002°27'1010.4
2017-Feb-10 19:33N 56°06' W 002°44'1111.3
2017-Feb-10 18:33N 56°03' W 003°04'1110.8
2017-Feb-10 17:33N 56°00' W 003°23'0 0.0
2017-Feb-09 15:30N 56°00' W 003°24'1111.2
2017-Feb-09 14:34N 56°04' W 003°06'1 1.0
2017-Feb-09 13:32N 56°04' W 003°05'0 0.0
2017-Feb-09 12:32N 56°04' W 003°05'0 0.3
2017-Feb-09 11:33N 56°05' W 003°05'1111.3
2017-Feb-09 10:33N 56°07' W 002°45'1212.4
2017-Feb-09 09:33N 56°12' W 002°24'1212.0
2017-Feb-09 08:33N 56°18' W 002°06'  
Track history (hours):
 
Tides and Currents Weather Stations Pressure Air Temp Water Temp Dewpoint Dewpoint Depression Visibility Wind Speed Wind Dir Waves Ship Positions

Clipper Saga

Last reported at 2017-Feb-19 04:33 UTC. Time now 2017-Feb-19 21:14 UTC.
Position N 51°41' E 004°34'.

Length 89 m; draft 5.9 m.

Type: Ship (hazmat cat C). MMSI: 246657008.

Date/timePositionNaut miles runAvg speedWind from/ knotsBaromVisibWave heightAir tempDewpointWater temp
2017-Feb-19 04:33N 51°41' E 004°34'3 3.5
2017-Feb-19 03:34N 51°44' E 004°38'7 7.2
2017-Feb-19 02:34N 51°50' E 004°31'8 7.7
2017-Feb-19 01:33N 51°54' E 004°20'1 0.6
2017-Feb-19 00:30N 51°53' E 004°21'0 0.0
2017-Feb-18 23:30N 51°53' E 004°21'0 0.0
2017-Feb-18 22:24N 51°53' E 004°21'0 0.0
2017-Feb-18 21:30N 51°53' E 004°21'0 0.0
2017-Feb-18 20:30N 51°53' E 004°21'0 0.0
2017-Feb-18 19:31N 51°53' E 004°21'0 0.0
2017-Feb-18 18:31N 51°53' E 004°21'0 0.0
2017-Feb-18 17:31N 51°53' E 004°21'0 0.0
2017-Feb-18 16:31N 51°53' E 004°21'0 0.0
2017-Feb-18 15:31N 51°53' E 004°21'6 5.9
2017-Feb-18 14:33N 51°56' E 004°13'10 9.6
2017-Feb-18 13:33N 51°60' E 003°58'9 9.3
2017-Feb-18 12:33N 51°59' E 003°43'53 8.8
2017-Feb-18 06:33N 51°37' E 002°26'9 9.4
2017-Feb-18 05:33N 51°30' E 002°16'9 9.1
2017-Feb-18 04:33N 51°22' E 002°08'10 9.5
2017-Feb-18 03:33N 51°14' E 002°02'9 9.4
2017-Feb-18 02:33N 51°09' E 001°49'9 9.3
2017-Feb-18 01:33N 51°02' E 001°39'10 9.8
2017-Feb-18 00:33N 50°54' E 001°29'48 8.8
2017-Feb-17 19:06N 50°24' E 000°31'6 9.2
2017-Feb-17 18:29N 50°22' E 000°22'10 9.1
2017-Feb-17 17:26N 50°19' E 000°08'8 9.4
2017-Feb-17 16:33N 50°16' W 000°04'10 9.6
2017-Feb-17 15:33N 50°13' W 000°19'9 8.8
2017-Feb-17 14:33N 50°10' W 000°32'10 6.4
2017-Feb-17 13:04N 50°03' W 000°41'5 9.1
2017-Feb-17 12:33N 49°59' W 000°39'9 9.0
2017-Feb-17 11:33N 49°50' W 000°35'9 9.0
2017-Feb-17 10:33N 49°42' W 000°30'1010.0
2017-Feb-17 09:33N 49°35' W 000°19'1212.2
2017-Feb-17 08:33N 49°29' W 000°03'1212.2
2017-Feb-17 07:33N 49°26' E 000°16'1211.6
2017-Feb-17 06:33N 49°27' E 000°33'9 7.0
2017-Feb-17 05:12N 49°29' E 000°48'5 0.3
2017-Feb-16 11:33N 49°29' E 000°40'9 9.0
2017-Feb-16 10:33N 49°28' E 000°26'1212.3
2017-Feb-16 09:33N 49°26' E 000°08'9 8.7
2017-Feb-16 08:31N 49°28' W 000°06'0 0.0
2017-Feb-16 07:31N 49°28' W 000°06'0 0.0
2017-Feb-16 06:31N 49°28' W 000°06'2 1.9
2017-Feb-16 05:33N 49°30' W 000°08'1010.2
2017-Feb-16 04:34N 49°40' W 000°10'1111.2
2017-Feb-16 03:33N 49°51' W 000°10'1111.2
2017-Feb-16 02:33N 50°02' W 000°09'1211.0
2017-Feb-16 01:29N 50°14' W 000°09'910.1
2017-Feb-16 00:34N 50°23' W 000°06'8 8.0
2017-Feb-15 23:34N 50°29' E 000°02'10 9.4
2017-Feb-15 22:30N 50°31' E 000°17'4511.4
2017-Feb-15 18:34N 50°54' E 001°18'1110.5
2017-Feb-15 17:34N 51°02' E 001°28'9 8.7
2017-Feb-15 16:34N 51°09' E 001°38'8 8.3
2017-Feb-15 15:34N 51°14' E 001°47'9 8.7
2017-Feb-15 14:34N 51°22' E 001°55'1010.2
2017-Feb-15 13:34N 51°30' E 002°04'6211.4
2017-Feb-15 08:06N 52°04' E 003°29'611.3
2017-Feb-15 07:33N 52°04' E 003°39'1110.6
2017-Feb-15 06:34N 52°02' E 003°56'1110.6
2017-Feb-15 05:34N 51°57' E 004°11'6 5.3
2017-Feb-15 04:24N 51°53' E 004°18'0 0.0
2017-Feb-15 03:30N 51°53' E 004°18'0 0.0
2017-Feb-15 02:24N 51°53' E 004°18'0 0.0
2017-Feb-15 01:30N 51°53' E 004°18'0 0.0
2017-Feb-15 00:30N 51°53' E 004°18'0 0.0
2017-Feb-14 23:30N 51°53' E 004°18'0 0.0
2017-Feb-14 22:30N 51°53' E 004°18'0 0.0
2017-Feb-14 21:30N 51°53' E 004°18'0 0.0
2017-Feb-14 20:33N 51°53' E 004°18'0 0.0
2017-Feb-14 19:30N 51°53' E 004°18'0 0.0
2017-Feb-14 18:33N 51°53' E 004°18'0 0.0
2017-Feb-14 17:30N 51°53' E 004°18'0 0.0
2017-Feb-14 16:30N 51°53' E 004°18'0 0.0
2017-Feb-14 15:30N 51°53' E 004°18'0 0.0
2017-Feb-14 14:30N 51°53' E 004°18'0 0.2
2017-Feb-14 13:34N 51°53' E 004°18'8 8.3
2017-Feb-14 12:33N 51°58' E 004°08'1010.1
2017-Feb-14 11:33N 51°60' E 003°52'1110.0
2017-Feb-14 10:29N 52°05' E 003°37'31 1.7
2017-Feb-13 16:32N 52°19' E 002°52'4 4.5
2017-Feb-13 15:33N 52°17' E 002°45'8 7.8
2017-Feb-13 14:32N 52°16' E 002°32'8 7.7
2017-Feb-13 13:33N 52°14' E 002°20'6 5.8
2017-Feb-13 12:33N 52°13' E 002°11'8 8.0
2017-Feb-13 11:31N 52°14' E 002°24'8 8.0
2017-Feb-13 10:33N 52°15' E 002°37'16 8.1
2017-Feb-13 08:33N 52°05' E 002°58'9 9.3
2017-Feb-13 07:33N 52°04' E 003°13'1211.5
2017-Feb-13 06:33N 52°04' E 003°32'1211.9
2017-Feb-13 05:34N 52°03' E 003°51'1010.4
2017-Feb-13 04:34N 51°59' E 004°06'9 9.2
2017-Feb-13 03:33N 51°53' E 004°18'1 0.7
2017-Feb-13 02:31N 51°53' E 004°17'0 0.0
2017-Feb-13 01:34N 51°53' E 004°17'0 0.0
2017-Feb-13 00:31N 51°53' E 004°17'0 0.0
2017-Feb-12 23:25N 51°53' E 004°17'0 0.0
2017-Feb-12 22:31N 51°53' E 004°17'0 0.0
2017-Feb-12 21:28N 51°53' E 004°17'0 0.0
2017-Feb-12 20:33N 51°53' E 004°17'0 0.0
2017-Feb-12 19:31N 51°53' E 004°17'0 0.0
2017-Feb-12 18:33N 51°53' E 004°17'0 0.0
2017-Feb-12 17:33N 51°53' E 004°17'0 0.0
2017-Feb-12 16:33N 51°53' E 004°17'0 0.0
2017-Feb-12 15:30N 51°53' E 004°17'0 0.0
2017-Feb-12 14:33N 51°53' E 004°17'0 0.0
2017-Feb-12 13:33N 51°53' E 004°17'0 0.0
2017-Feb-12 12:33N 51°53' E 004°17'0 0.0
2017-Feb-12 11:30N 51°53' E 004°17'0 0.0
2017-Feb-12 10:30N 51°53' E 004°17'0 0.0
2017-Feb-12 09:32N 51°53' E 004°17'0 0.0
2017-Feb-12 08:32N 51°53' E 004°17'0 0.0
2017-Feb-12 07:32N 51°53' E 004°17'0 0.0
2017-Feb-12 06:33N 51°53' E 004°17'3 3.0
2017-Feb-12 05:33N 51°55' E 004°14'1010.1
2017-Feb-12 04:33N 51°60' E 003°59'1010.3
2017-Feb-12 03:33N 52°02' E 003°43'80 9.9
2017-Feb-11 19:32N 52°47' E 001°54'1212.3
2017-Feb-11 18:33N 52°54' E 001°38'1312.5
2017-Feb-11 17:34N 53°04' E 001°26'6610.9
2017-Feb-11 11:31N 53°60' E 000°28'9 9.6
2017-Feb-11 10:33N 54°07' E 000°19'10 9.6
2017-Feb-11 09:33N 54°16' E 000°11'9 9.5
2017-Feb-11 08:33N 54°24' E 000°02'1010.0
2017-Feb-11 07:33N 54°32' W 000°07'1110.5
2017-Feb-11 06:33N 54°41' W 000°16'5011.6
2017-Feb-11 02:15N 55°23' W 001°02'812.0
2017-Feb-11 01:33N 55°30' W 001°11'1211.7
2017-Feb-11 00:33N 55°39' W 001°25'1111.1
2017-Feb-10 23:32N 55°46' W 001°41'1010.6
2017-Feb-10 22:33N 55°52' W 001°55'1010.1
2017-Feb-10 21:33N 55°58' W 002°10'1010.5
2017-Feb-10 20:33N 56°03' W 002°27'1010.4
2017-Feb-10 19:33N 56°06' W 002°44'1111.3
2017-Feb-10 18:33N 56°03' W 003°04'1110.8
2017-Feb-10 17:33N 56°00' W 003°23'0 0.0
2017-Feb-09 15:30N 56°00' W 003°24'1111.2
2017-Feb-09 14:34N 56°04' W 003°06'1 1.0
2017-Feb-09 13:32N 56°04' W 003°05'0 0.0
2017-Feb-09 12:32N 56°04' W 003°05'0 0.3
2017-Feb-09 11:33N 56°05' W 003°05'1111.3
2017-Feb-09 10:33N 56°07' W 002°45'1212.4
2017-Feb-09 09:33N 56°12' W 002°24'1212.0
2017-Feb-09 08:33N 56°18' W 002°06'  

Dump ship's entire track history